This is the latest recevied weather packets stored in our database for station/object VK3BKO-13. If no packets are shown the sender has not sent any weather packets the latest 10 day(s).
| Time | Temp. | Humidity | Pressure | Rain* | Wind** | Luminosity | Snow |
|---|---|---|---|---|---|---|---|
| 1777436224 | 21.11° C | 63% | 1026.8 hPa | 0 mm | - | 350 W/m² | - |
| 1777434424 | 21.11° C | 62% | 1026.8 hPa | 0 mm | - | 320 W/m² | - |
| 1777433523 | 21.11° C | 62% | 1026.8 hPa | 0 mm | - | 498 W/m² | - |
| 1777432624 | 21.11° C | 63% | 1027.1 hPa | 0 mm | - | 225 W/m² | - |
| 1777431724 | 20.56° C | 63% | 1027.5 hPa | 0 mm | - | 444 W/m² | - |
| 1777429924 | 20° C | 65% | 1027.8 hPa | 0 mm | - | 286 W/m² | - |
| 1777423624 | 18.89° C | 70% | 1028.5 hPa | 0 mm | - | 438 W/m² | - |
| 1777421824 | 17.78° C | 74% | 1028.8 hPa | 0 mm | - | 397 W/m² | - |
| 1777406523 | 10.56° C | 92% | 1027.5 hPa | 0 mm | - | 0 W/m² | - |
| 1777403824 | 10.56° C | 92% | 1027.5 hPa | 0 mm | - | 0 W/m² | - |
| 1777399324 | 11.11° C | 91% | 1026.8 hPa | 0 mm | - | 0 W/m² | - |
| 1777397525 | 12.22° C | 91% | 1026.8 hPa | 0 mm | - | 0 W/m² | - |
| 1777393924 | 12.22° C | 89% | 1026.4 hPa | 0 mm | - | 0 W/m² | - |
| 1777392124 | 12.78° C | 88% | 1026.8 hPa | 0 mm | - | 0 W/m² | - |
| 1777391224 | 12.78° C | 87% | 1026.8 hPa | 0 mm | - | 0 W/m² | - |
| 1777384924 | 14.44° C | 83% | 1025.8 hPa | 0 mm | - | 0 W/m² | - |
| 1777383123 | 14.44° C | 83% | 1025.8 hPa | 0 mm | - | 0 W/m² | - |
| 1777382223 | 14.44° C | 82% | 1025.8 hPa | 0 mm | - | 0 W/m² | - |
| 1777379524 | 16.11° C | 75% | 1025.4 hPa | 0 mm | - | 0 W/m² | - |
| 1777378624 | 16.67° C | 75% | 1024.8 hPa | 0 mm | - | 0 W/m² | - |
| 1777376824 | 17.22° C | 71% | 1024.8 hPa | 0 mm | - | 0 W/m² | - |
| 1777372324 | 16.67° C | 73% | 1023.4 hPa | 0 mm | - | 0 W/m² | - |
| 1777371424 | 16.67° C | 75% | 1023.1 hPa | 0 mm | - | 0 W/m² | - |
| 1777370524 | 16.67° C | 76% | 1022.7 hPa | 0 mm | - | 0 W/m² | - |
| 1777369624 | 17.22° C | 74% | 1022.7 hPa | 0 mm | - | 0 W/m² | - |
* Rain latest hour (hover to see other rain measurements)
** Current wind speed in m/s (hover to see current wind gust speed)